< < Back
Terminal Aerodrome Forecast


Current Version              Previous Versions:   1  2  3  4  5  6  7  8  9  

Terminal Aerodrome Forecast

056
FTUS44 KMOB 272300
TAFPNS
TAF
KPNS 272320Z 2800/2824 19008KT P6SM FEW050 SCT070 BKN110
     FM280300 00000KT P6SM SCT110 BKN250
     FM282100 18008KT P6SM SCT050=



Latest METAR

118
SAUS70 KWBC 280100 RRF
MTRPNS
METAR KPNS 280053Z 22006KT 10SM CLR 27/21 A2998 RMK AO2 SLP154
T02720206


USA.gov is the U.S. government's official web portal to all federal, state and local government web resources and services.